KCXU

Details ICAO KCXU
Name CAMILLA MITCHELL CO
Region United States
Timezone America/New_York (UTC-4.0)
Plans Departing 1
Arriving 3
Stats Elevation 175 ft / 53 m (AMSL)
Location 31.212915° -84.236805°
Runways 1
Magnetic Variation 4.934° W
Sunrise 2018-05-26 10:36:55 UTC / 2018-05-26 06:36:55 Local
Sunset 2018-05-27 00:34:00 UTC / 2018-05-26 20:34:00 Local
Advertisement - Login to hide

Runways

ID Width Length Bearing (true) Bearing (mag) Surface Threshold Offset Overrun Length
08 60 ft / 18 m 3,998 ft / 1,219 m 78.99° 83.92° Asphalt 0 ft / 0 m 0 ft / 0 m
26 60 ft / 18 m 3,998 ft / 1,219 m 259.00° 263.93° Asphalt 0 ft / 0 m 0 ft / 0 m

Map

Weather


0- 5 10 15 20 25 30 35+ Temperature / ° C

Clouds and Precipitation
Forecast for 2018-05-26 12:00 UTC. Updated an hour ago

Ground ~20,000 ft ~40,000 ft Winds

METAR

KCXU 261155Z AUTO 00000KT 10SM SCT002 22/21 A2997 RMK AO1 T02200213 10232 20216

TAF

Not found

Frequencies

Unicom 122.80 MHz CTAF/UNICOM
Warning: Do not use this data for real-world aviation or navigation. No guarantee of current accuracy is given.